createdAt,value
2019-05-10T00:00:01.660Z,24.00
2019-05-10T00:01:22.868Z,24.00
2019-05-10T00:02:44.501Z,24.00
2019-05-10T00:04:06.107Z,24.00
2019-05-10T00:05:28.254Z,24.00
2019-05-10T00:06:49.561Z,24.00
2019-05-10T00:08:11.655Z,24.10
2019-05-10T00:09:33.299Z,24.00
2019-05-10T00:10:55.015Z,24.00
2019-05-10T00:12:16.171Z,24.00
2019-05-10T00:13:37.967Z,24.00
2019-05-10T00:14:59.556Z,24.00
2019-05-10T00:16:20.932Z,24.00
2019-05-10T00:17:42.474Z,24.00
2019-05-10T00:19:03.914Z,24.00
2019-05-10T00:20:25.693Z,24.00
2019-05-10T00:21:47.243Z,24.00
2019-05-10T00:23:08.553Z,24.00
2019-05-10T00:24:30.700Z,24.00
2019-05-10T00:25:52.361Z,24.00
2019-05-10T00:27:13.758Z,24.00
2019-05-10T00:28:35.204Z,24.00
2019-05-10T00:29:56.802Z,24.00
2019-05-10T00:31:18.223Z,24.00
2019-05-10T00:32:39.755Z,24.00
2019-05-10T00:34:01.279Z,24.00
2019-05-10T00:35:23.989Z,24.00
2019-05-10T00:36:45.618Z,24.00
2019-05-10T00:38:07.191Z,24.00
2019-05-10T00:39:28.435Z,24.00
2019-05-10T00:40:49.966Z,23.90
2019-05-10T00:42:11.844Z,24.00
2019-05-10T00:43:33.642Z,24.00
2019-05-10T00:44:55.298Z,24.00
2019-05-10T00:46:16.951Z,24.00
2019-05-10T00:47:38.631Z,24.00
2019-05-10T00:48:59.997Z,24.00
2019-05-10T00:50:21.648Z,24.00
2019-05-10T00:51:43.219Z,24.00
2019-05-10T00:53:04.505Z,24.00
2019-05-10T00:54:26.354Z,24.00
2019-05-10T00:55:47.652Z,24.00
2019-05-10T00:57:09.119Z,24.00
2019-05-10T00:58:30.869Z,24.00
2019-05-10T00:59:52.731Z,24.00
2019-05-10T01:01:14.227Z,23.90
2019-05-10T01:02:35.638Z,24.00
2019-05-10T01:03:57.328Z,24.00
2019-05-10T01:05:18.658Z,24.00
2019-05-10T01:06:40.511Z,24.00
2019-05-10T01:08:02.074Z,24.00
2019-05-10T01:09:23.439Z,24.00
2019-05-10T01:10:44.974Z,24.00
2019-05-10T01:12:07.131Z,23.90
2019-05-10T01:13:28.743Z,24.00
2019-05-10T01:14:50.366Z,23.90
2019-05-10T01:16:11.807Z,23.90
2019-05-10T01:17:33.079Z,24.00
2019-05-10T01:18:54.850Z,23.90
2019-05-10T01:20:16.106Z,23.90
2019-05-10T01:21:37.403Z,23.90
2019-05-10T01:22:58.699Z,23.90
2019-05-10T01:24:20.044Z,23.90
2019-05-10T01:25:41.506Z,23.90
2019-05-10T01:27:02.859Z,24.00
2019-05-10T01:28:24.519Z,24.00
2019-05-10T01:29:46.163Z,23.90
2019-05-10T01:31:07.638Z,23.90
2019-05-10T01:32:29.353Z,23.90
2019-05-10T01:33:50.972Z,23.90
2019-05-10T01:35:12.523Z,23.90
2019-05-10T01:36:34.170Z,23.90
2019-05-10T01:37:55.639Z,23.90
2019-05-10T01:39:16.981Z,24.00
2019-05-10T01:40:38.411Z,24.00
2019-05-10T01:41:59.899Z,24.00
2019-05-10T01:43:21.559Z,24.00
2019-05-10T01:44:42.935Z,23.90
2019-05-10T01:46:04.277Z,24.00
2019-05-10T01:47:25.661Z,23.90
2019-05-10T01:48:46.985Z,24.00
2019-05-10T01:50:08.884Z,23.90
2019-05-10T01:51:31.152Z,23.90
2019-05-10T01:52:52.424Z,24.00
2019-05-10T01:54:13.703Z,23.90
2019-05-10T01:55:50.769Z,23.90
2019-05-10T01:56:58.090Z,23.90
2019-05-10T01:58:19.736Z,24.00
2019-05-10T01:59:42.059Z,23.90
2019-05-10T02:01:04.286Z,23.90
2019-05-10T02:02:25.898Z,23.90
2019-05-10T02:03:47.259Z,23.90
2019-05-10T02:05:09.260Z,24.00
2019-05-10T02:06:30.920Z,23.90
2019-05-10T02:07:52.874Z,23.90
2019-05-10T02:09:14.211Z,24.00
2019-05-10T02:10:35.564Z,23.90
2019-05-10T02:11:57.167Z,23.90
2019-05-10T02:13:18.602Z,24.00
2019-05-10T02:14:40.301Z,23.90
2019-05-10T02:16:01.804Z,24.00
2019-05-10T02:17:23.355Z,24.00
2019-05-10T02:18:44.879Z,24.00
2019-05-10T02:20:06.640Z,23.90
2019-05-10T02:21:28.158Z,23.90
2019-05-10T02:22:49.933Z,23.90
2019-05-10T02:24:11.087Z,24.00
2019-05-10T02:25:32.719Z,24.00
2019-05-10T02:26:54.218Z,24.00
2019-05-10T02:28:15.753Z,23.90
2019-05-10T02:29:37.299Z,23.90
2019-05-10T02:30:58.860Z,24.00
2019-05-10T02:32:20.364Z,23.90
2019-05-10T02:33:41.963Z,23.90
2019-05-10T02:35:05.862Z,23.90
2019-05-10T02:36:27.108Z,23.90
2019-05-10T02:37:48.629Z,23.90
2019-05-10T02:39:09.992Z,23.90
2019-05-10T02:40:31.877Z,23.90
2019-05-10T02:41:54.229Z,23.90
2019-05-10T02:43:15.748Z,23.90
2019-05-10T02:44:37.051Z,23.90
2019-05-10T02:45:58.399Z,23.90
2019-05-10T02:47:19.775Z,23.90
2019-05-10T02:48:41.287Z,23.90
2019-05-10T02:50:05.207Z,23.90
2019-05-10T02:51:26.499Z,23.90
2019-05-10T02:52:48.080Z,23.90
2019-05-10T02:54:09.421Z,23.90
2019-05-10T02:55:30.935Z,23.90
2019-05-10T02:56:52.222Z,23.90
2019-05-10T02:58:15.356Z,23.90
2019-05-10T02:59:37.019Z,23.90
2019-05-10T03:00:59.988Z,23.90
2019-05-10T03:02:21.387Z,24.00
2019-05-10T03:03:44.553Z,23.90
2019-05-10T03:05:06.730Z,23.90
2019-05-10T03:06:29.142Z,23.90
2019-05-10T03:07:50.869Z,23.90
2019-05-10T03:09:12.476Z,23.90
2019-05-10T03:10:33.736Z,23.90
2019-05-10T03:11:55.220Z,23.90
2019-05-10T03:13:17.662Z,23.90
2019-05-10T03:14:42.315Z,23.90
2019-05-10T03:16:04.080Z,23.90
2019-05-10T03:17:26.103Z,23.90
2019-05-10T03:18:47.324Z,23.90
2019-05-10T03:20:08.954Z,23.90
2019-05-10T03:21:30.292Z,23.90
2019-05-10T03:22:52.232Z,23.90
2019-05-10T03:24:13.900Z,23.90
2019-05-10T03:25:35.312Z,23.90
2019-05-10T03:26:56.560Z,23.90
2019-05-10T03:28:18.117Z,23.90
2019-05-10T03:29:39.757Z,23.90
2019-05-10T03:31:01.189Z,23.90
2019-05-10T03:32:22.468Z,23.90
2019-05-10T03:33:43.721Z,23.90
2019-05-10T03:35:06.217Z,23.90
2019-05-10T03:36:27.864Z,23.90
2019-05-10T03:37:49.359Z,23.90
2019-05-10T03:39:10.888Z,23.90
2019-05-10T03:40:32.544Z,23.90
2019-05-10T03:41:54.057Z,23.90
2019-05-10T03:43:15.973Z,23.90
2019-05-10T03:44:37.348Z,23.90
2019-05-10T03:45:58.911Z,23.90
2019-05-10T03:47:20.509Z,23.90
2019-05-10T03:48:41.855Z,23.90
2019-05-10T03:50:05.267Z,23.90
2019-05-10T03:51:26.759Z,23.90
2019-05-10T03:52:52.046Z,24.00
2019-05-10T03:54:11.466Z,23.90
2019-05-10T03:55:33.123Z,23.90
2019-05-10T03:57:10.962Z,23.90
2019-05-10T03:58:17.768Z,23.90
2019-05-10T03:59:39.344Z,23.90
2019-05-10T04:01:00.907Z,23.90
2019-05-10T04:02:22.294Z,23.90
2019-05-10T04:03:43.757Z,24.00
2019-05-10T04:05:05.821Z,24.00
2019-05-10T04:06:27.287Z,24.00
2019-05-10T04:07:48.751Z,24.00
2019-05-10T04:09:10.048Z,24.00
2019-05-10T04:10:31.861Z,24.00
2019-05-10T04:11:53.588Z,24.00
2019-05-10T04:13:15.079Z,24.00
2019-05-10T04:14:36.711Z,24.00
2019-05-10T04:15:58.523Z,24.00
2019-05-10T04:17:20.117Z,24.00
2019-05-10T04:18:41.841Z,24.00
2019-05-10T04:20:07.468Z,24.00
2019-05-10T04:21:28.772Z,24.00
2019-05-10T04:22:50.176Z,24.00
2019-05-10T04:24:11.643Z,24.00
2019-05-10T04:25:33.012Z,24.00
2019-05-10T04:26:54.780Z,24.00
2019-05-10T04:28:16.426Z,24.00
2019-05-10T04:29:38.071Z,24.00
2019-05-10T04:30:59.668Z,24.00
2019-05-10T04:32:21.353Z,24.00
2019-05-10T04:33:42.894Z,24.00
2019-05-10T04:35:06.130Z,24.00
2019-05-10T04:36:27.462Z,24.00
2019-05-10T04:37:49.069Z,24.00
2019-05-10T04:39:10.760Z,24.00
2019-05-10T04:40:32.421Z,24.00
2019-05-10T04:41:54.148Z,24.00
2019-05-10T04:43:15.692Z,24.00
2019-05-10T04:44:37.083Z,24.00
2019-05-10T04:45:59.357Z,23.90
2019-05-10T04:47:20.959Z,24.00
2019-05-10T04:48:43.118Z,24.00
2019-05-10T04:50:05.109Z,23.90
2019-05-10T04:51:26.745Z,24.00
2019-05-10T04:52:48.237Z,23.90
2019-05-10T04:54:09.575Z,24.00
2019-05-10T04:55:31.307Z,23.90
2019-05-10T04:56:53.063Z,24.00
2019-05-10T04:58:14.457Z,24.00
2019-05-10T04:59:36.100Z,23.90
2019-05-10T05:00:57.444Z,24.00
2019-05-10T05:02:22.038Z,24.00
2019-05-10T05:03:42.415Z,24.00
2019-05-10T05:05:05.472Z,24.00
2019-05-10T05:06:26.619Z,24.00
2019-05-10T05:07:48.139Z,24.00
2019-05-10T05:09:09.755Z,24.00
2019-05-10T05:10:31.235Z,24.00
2019-05-10T05:11:52.615Z,24.00
2019-05-10T05:13:14.270Z,24.00
2019-05-10T05:14:35.775Z,24.00
2019-05-10T05:15:57.412Z,24.00
2019-05-10T05:17:18.867Z,24.00
2019-05-10T05:18:40.323Z,24.00
2019-05-10T05:20:01.786Z,24.00
2019-05-10T05:21:23.419Z,24.00
2019-05-10T05:22:45.039Z,24.00
2019-05-10T05:24:07.455Z,24.00
2019-05-10T05:25:29.253Z,24.00
2019-05-10T05:26:50.599Z,24.00
2019-05-10T05:28:11.949Z,24.00
2019-05-10T05:29:33.563Z,24.00
2019-05-10T05:30:55.099Z,24.00
2019-05-10T05:32:16.920Z,24.00
2019-05-10T05:33:38.419Z,24.00
2019-05-10T05:35:00.559Z,24.00
2019-05-10T05:36:22.475Z,24.00
2019-05-10T05:37:44.335Z,24.00
2019-05-10T05:39:06.891Z,24.00
2019-05-10T05:40:28.221Z,24.00
2019-05-10T05:41:51.752Z,24.00
2019-05-10T05:43:12.694Z,24.00
2019-05-10T05:44:34.398Z,24.00
2019-05-10T05:45:55.749Z,24.00
2019-05-10T05:47:17.378Z,24.10
2019-05-10T05:48:40.386Z,24.00
2019-05-10T05:50:02.472Z,24.10
2019-05-10T05:51:23.951Z,24.10
2019-05-10T05:52:45.403Z,24.10
2019-05-10T05:54:06.876Z,24.10
2019-05-10T05:55:30.598Z,24.10
2019-05-10T05:56:53.069Z,24.10
2019-05-10T05:58:25.692Z,24.10
2019-05-10T05:59:37.171Z,24.10
2019-05-10T06:00:58.467Z,24.00
2019-05-10T06:02:20.442Z,23.90
2019-05-10T06:03:41.987Z,23.60
2019-05-10T06:05:05.235Z,23.50
2019-05-10T06:06:27.079Z,23.30
2019-05-10T06:07:52.095Z,23.30
2019-05-10T06:09:11.666Z,23.20
2019-05-10T06:10:33.223Z,23.10
2019-05-10T06:11:54.619Z,23.20
2019-05-10T06:13:16.351Z,23.20
2019-05-10T06:14:42.680Z,23.30
2019-05-10T06:16:05.808Z,23.30
2019-05-10T06:17:23.773Z,23.30
2019-05-10T06:18:47.508Z,23.40
2019-05-10T06:20:09.046Z,23.40
2019-05-10T06:21:30.487Z,23.40
2019-05-10T06:23:05.846Z,23.50
2019-05-10T06:24:15.874Z,23.50
2019-05-10T06:25:40.016Z,23.50
2019-05-10T06:27:03.498Z,23.50
2019-05-10T06:28:28.726Z,23.50
2019-05-10T06:29:46.535Z,23.50
2019-05-10T06:31:08.143Z,23.50
2019-05-10T06:32:29.521Z,23.60
2019-05-10T06:33:51.156Z,23.60
2019-05-10T06:35:14.156Z,23.60
2019-05-10T06:36:35.899Z,23.70
2019-05-10T06:37:57.572Z,23.70
2019-05-10T06:39:19.527Z,23.70
2019-05-10T06:40:46.885Z,23.70
2019-05-10T06:42:03.898Z,23.70
2019-05-10T06:43:25.286Z,23.70
2019-05-10T06:44:47.034Z,23.80
2019-05-10T06:46:08.651Z,23.80
2019-05-10T06:47:30.130Z,23.90
2019-05-10T06:48:51.900Z,23.90
2019-05-10T06:50:13.559Z,23.90
2019-05-10T06:51:34.897Z,23.90
2019-05-10T06:53:00.545Z,24.00
2019-05-10T06:54:19.410Z,24.00
2019-05-10T06:55:41.146Z,24.10
2019-05-10T06:57:03.154Z,24.10
2019-05-10T06:58:24.879Z,24.20
2019-05-10T06:59:46.459Z,24.20
2019-05-10T07:01:08.412Z,24.20
2019-05-10T07:02:32.492Z,24.20
2019-05-10T07:03:53.448Z,24.20
2019-05-10T07:05:15.504Z,24.30
2019-05-10T07:06:38.343Z,24.30
2019-05-10T07:08:13.879Z,24.30
2019-05-10T07:09:23.002Z,24.30
2019-05-10T07:10:44.811Z,24.40
2019-05-10T07:12:09.375Z,24.50
2019-05-10T07:13:29.691Z,24.60
2019-05-10T07:14:51.532Z,24.70
2019-05-10T07:16:14.492Z,24.70
2019-05-10T07:17:41.302Z,24.70
2019-05-10T07:19:00.633Z,24.80
2019-05-10T07:20:23.727Z,24.90
2019-05-10T07:21:50.884Z,24.90
2019-05-10T07:23:08.091Z,24.90
2019-05-10T07:24:29.736Z,24.80
2019-05-10T07:25:51.100Z,24.80
2019-05-10T07:27:12.544Z,24.80
2019-05-10T07:28:34.154Z,24.90
2019-05-10T07:29:55.531Z,24.90
2019-05-10T07:31:17.123Z,25.00
2019-05-10T07:32:38.531Z,25.00
2019-05-10T07:34:00.229Z,25.10
2019-05-10T07:35:21.588Z,25.20
2019-05-10T07:36:43.316Z,25.30
2019-05-10T07:38:04.765Z,25.40
2019-05-10T07:39:25.963Z,25.40
2019-05-10T07:40:47.413Z,25.50
2019-05-10T07:42:09.166Z,25.60
2019-05-10T07:43:30.935Z,25.60
2019-05-10T07:44:52.331Z,25.60
2019-05-10T07:46:13.940Z,25.70
2019-05-10T07:47:35.526Z,25.70
2019-05-10T07:48:58.365Z,25.80
2019-05-10T07:50:20.039Z,25.80
2019-05-10T07:51:41.492Z,25.90
2019-05-10T07:53:03.073Z,25.80
2019-05-10T07:54:24.347Z,25.80
2019-05-10T07:55:46.351Z,25.80
2019-05-10T07:57:08.044Z,25.70
2019-05-10T07:58:29.733Z,25.70
2019-05-10T07:59:51.714Z,25.60
2019-05-10T08:01:13.434Z,25.50
2019-05-10T08:02:34.887Z,25.40
2019-05-10T08:03:56.139Z,25.40
2019-05-10T08:05:18.461Z,25.30
2019-05-10T08:06:47.272Z,25.10
2019-05-10T08:08:03.120Z,25.00
2019-05-10T08:09:24.767Z,24.80
2019-05-10T08:10:48.691Z,24.60
2019-05-10T08:12:12.683Z,24.50
2019-05-10T08:13:32.694Z,24.40
2019-05-10T08:14:54.351Z,24.20
2019-05-10T08:16:21.895Z,24.30
2019-05-10T08:17:43.201Z,24.50
2019-05-10T08:19:02.407Z,24.60
2019-05-10T08:20:38.118Z,24.70
2019-05-10T08:21:48.673Z,24.80
2019-05-10T08:23:09.886Z,24.90
2019-05-10T08:24:35.147Z,24.90
2019-05-10T08:25:54.072Z,25.00
2019-05-10T08:27:15.931Z,25.10
2019-05-10T08:28:41.306Z,25.10
2019-05-10T08:31:26.244Z,25.20
2019-05-10T08:32:46.947Z,25.30
2019-05-10T08:34:08.471Z,25.30
2019-05-10T08:35:32.772Z,25.30
2019-05-10T08:36:54.135Z,25.30
2019-05-10T08:38:15.627Z,25.40
2019-05-10T08:39:45.174Z,25.40
2019-05-10T08:41:02.515Z,25.30
2019-05-10T08:42:37.739Z,25.30
2019-05-10T08:43:45.654Z,25.40
2019-05-10T08:45:08.816Z,25.30
2019-05-10T08:46:40.058Z,25.30
2019-05-10T08:48:00.692Z,25.20
2019-05-10T08:49:22.159Z,25.20
2019-05-10T08:50:50.684Z,25.20
2019-05-10T08:52:03.234Z,25.20
2019-05-10T08:53:24.880Z,25.10
2019-05-10T08:54:46.515Z,25.20
2019-05-10T08:56:13.922Z,25.20
2019-05-10T08:57:34.868Z,25.20
2019-05-10T08:58:54.099Z,25.10
2019-05-10T09:00:15.297Z,25.10
2019-05-10T09:01:44.798Z,25.10
2019-05-10T09:03:00.951Z,25.10
2019-05-10T09:04:22.838Z,25.20
2019-05-10T09:05:44.439Z,25.10
2019-05-10T09:07:05.855Z,25.10
2019-05-10T09:08:31.552Z,25.20
2019-05-10T09:09:52.986Z,25.20
2019-05-10T09:11:16.251Z,25.10
2019-05-10T09:12:44.211Z,25.20
2019-05-10T09:13:59.726Z,25.20
2019-05-10T09:15:22.245Z,25.20
2019-05-10T09:16:50.842Z,25.10
2019-05-10T09:18:07.603Z,25.20
2019-05-10T09:19:37.451Z,25.20
2019-05-10T09:20:54.607Z,25.10
2019-05-10T09:22:15.579Z,25.20
2019-05-10T09:23:36.983Z,25.20
2019-05-10T09:24:58.499Z,25.10
2019-05-10T09:26:22.497Z,25.10
2019-05-10T09:27:43.549Z,25.20
2019-05-10T09:29:04.959Z,25.10
2019-05-10T09:30:32.468Z,25.20
2019-05-10T09:31:53.427Z,25.20
2019-05-10T09:33:14.951Z,25.20
2019-05-10T09:34:36.539Z,25.20
2019-05-10T09:35:59.308Z,25.30
2019-05-10T09:37:22.856Z,25.20
2019-05-10T09:38:46.383Z,25.20
2019-05-10T09:40:09.970Z,25.20
2019-05-10T09:41:36.143Z,25.20
2019-05-10T09:42:52.539Z,25.20
2019-05-10T09:44:13.871Z,25.20
2019-05-10T09:45:35.771Z,25.20
2019-05-10T09:46:57.259Z,25.20
2019-05-10T09:48:18.891Z,25.10
2019-05-10T09:49:45.158Z,25.10
2019-05-10T09:51:03.965Z,25.10
2019-05-10T09:52:26.315Z,25.10
2019-05-10T09:53:48.544Z,25.10
2019-05-10T09:55:14.568Z,25.10
2019-05-10T09:56:39.650Z,25.10
2019-05-10T09:57:58.249Z,25.10
2019-05-10T09:59:19.104Z,25.10
2019-05-10T10:00:40.487Z,25.10
2019-05-10T10:02:05.090Z,25.10
2019-05-10T10:03:29.669Z,25.10
2019-05-10T10:04:48.404Z,25.10
2019-05-10T10:06:11.325Z,25.10
2019-05-10T10:07:33.625Z,25.10
2019-05-10T10:08:55.388Z,25.10
2019-05-10T10:10:21.309Z,25.00
2019-05-10T10:11:39.899Z,24.90
2019-05-10T10:13:08.482Z,24.90
2019-05-10T10:14:24.520Z,24.90
2019-05-10T10:15:49.836Z,24.90
2019-05-10T10:17:08.941Z,24.80
2019-05-10T10:18:30.275Z,24.90
2019-05-10T10:19:51.557Z,24.90
2019-05-10T10:21:13.333Z,24.90
2019-05-10T10:22:34.710Z,24.90
2019-05-10T10:24:00.048Z,25.00
2019-05-10T10:25:19.171Z,25.00
2019-05-10T10:26:40.835Z,25.00
2019-05-10T10:28:02.189Z,25.10
2019-05-10T10:29:23.770Z,25.10
2019-05-10T10:30:50.513Z,25.10
2019-05-10T10:32:08.398Z,25.10
2019-05-10T10:33:29.637Z,25.10
2019-05-10T10:34:54.625Z,25.10
2019-05-10T10:36:14.467Z,25.00
2019-05-10T10:37:37.925Z,25.00
2019-05-10T10:38:59.623Z,24.90
2019-05-10T10:40:20.880Z,25.00
2019-05-10T10:41:42.463Z,25.00
2019-05-10T10:43:04.076Z,24.90
2019-05-10T10:44:27.048Z,25.00
2019-05-10T10:45:49.192Z,24.90
2019-05-10T10:47:10.554Z,24.90
2019-05-10T10:48:32.201Z,24.90
2019-05-10T10:49:53.607Z,24.80
2019-05-10T10:51:15.415Z,24.80
2019-05-10T10:52:37.699Z,24.80
2019-05-10T10:53:59.258Z,24.70
2019-05-10T10:55:20.767Z,24.70
2019-05-10T10:56:42.427Z,24.80
2019-05-10T10:58:04.091Z,24.80
2019-05-10T10:59:25.723Z,24.80
2019-05-10T11:00:48.183Z,24.80
2019-05-10T11:02:31.528Z,24.80
2019-05-10T11:03:32.580Z,24.80
2019-05-10T11:04:54.427Z,24.80
2019-05-10T11:06:15.911Z,24.80
2019-05-10T11:07:41.499Z,24.80
2019-05-10T11:09:01.763Z,24.80
2019-05-10T11:10:31.035Z,24.80
2019-05-10T11:11:51.765Z,24.80
2019-05-10T11:13:20.273Z,24.80
2019-05-10T11:14:39.911Z,24.80
2019-05-10T11:16:09.130Z,24.80
2019-05-10T11:17:22.088Z,24.80
2019-05-10T11:18:43.738Z,24.80
2019-05-10T11:20:08.623Z,24.80
2019-05-10T11:21:31.229Z,24.80
2019-05-10T11:22:53.456Z,24.80
2019-05-10T11:24:18.185Z,24.70
2019-05-10T11:25:42.751Z,24.70
2019-05-10T11:27:01.151Z,24.70
2019-05-10T11:28:22.522Z,24.60
2019-05-10T11:29:44.075Z,24.50
2019-05-10T11:31:05.568Z,24.50
2019-05-10T11:32:26.879Z,24.50
2019-05-10T11:33:56.126Z,24.50
2019-05-10T11:35:12.060Z,24.50
2019-05-10T11:36:34.739Z,24.60
2019-05-10T11:37:56.255Z,24.60
2019-05-10T11:39:26.116Z,24.60
2019-05-10T11:40:41.934Z,24.60
2019-05-10T11:42:07.280Z,24.60
2019-05-10T11:43:27.121Z,24.60
2019-05-10T11:44:53.183Z,24.60
2019-05-10T11:46:11.871Z,24.60
2019-05-10T11:47:33.404Z,24.70
2019-05-10T11:48:54.876Z,24.70
2019-05-10T11:50:28.733Z,24.70
2019-05-10T11:51:41.310Z,24.70
2019-05-10T11:53:06.951Z,24.70
2019-05-10T11:54:25.549Z,24.80
2019-05-10T11:55:46.929Z,24.70
2019-05-10T11:57:10.910Z,24.70
2019-05-10T11:58:37.565Z,24.50
2019-05-10T11:59:54.359Z,24.40
2019-05-10T12:01:19.290Z,24.50
2019-05-10T12:03:01.057Z,24.40
2019-05-10T12:04:04.970Z,24.40
2019-05-10T12:05:26.839Z,24.30
2019-05-10T12:06:51.477Z,24.20
2019-05-10T12:08:12.938Z,24.20
2019-05-10T12:09:33.570Z,24.10
2019-05-10T12:11:07.618Z,24.10
2019-05-10T12:12:29.645Z,24.00
2019-05-10T12:13:40.812Z,23.90
2019-05-10T12:15:04.417Z,23.90
2019-05-10T12:16:25.489Z,23.90
2019-05-10T12:17:53.614Z,23.90
2019-05-10T12:19:17.075Z,23.90
2019-05-10T12:20:54.082Z,23.90
2019-05-10T12:21:56.411Z,23.80
2019-05-10T12:23:22.992Z,23.90
2019-05-10T12:24:57.326Z,23.80
2019-05-10T12:27:13.420Z,23.80
2019-05-10T12:27:35.979Z,23.80
2019-05-10T12:28:51.037Z,23.80
2019-05-10T12:30:15.926Z,23.70
2019-05-10T12:31:37.155Z,23.60
2019-05-10T12:33:05.925Z,23.70
2019-05-10T12:34:21.687Z,23.80
2019-05-10T12:35:47.314Z,23.80
2019-05-10T12:37:08.214Z,23.80
2019-05-10T12:38:31.802Z,23.70
2019-05-10T12:39:53.448Z,23.80
2019-05-10T12:41:15.133Z,23.80
2019-05-10T12:42:36.948Z,23.80
2019-05-10T12:44:05.702Z,23.70
2019-05-10T12:45:23.446Z,23.70
2019-05-10T12:46:44.551Z,23.60
2019-05-10T12:48:05.824Z,23.60
2019-05-10T12:49:27.609Z,23.50
2019-05-10T12:50:51.616Z,23.50
2019-05-10T12:52:14.042Z,23.40
2019-05-10T12:53:36.658Z,23.40
2019-05-10T12:54:58.167Z,23.30
2019-05-10T12:56:19.791Z,23.40
2019-05-10T12:57:43.311Z,23.50
2019-05-10T12:59:04.252Z,23.60
2019-05-10T13:00:25.847Z,23.80
2019-05-10T13:01:47.453Z,23.80
2019-05-10T13:03:12.866Z,23.90
2019-05-10T13:04:40.190Z,24.00
2019-05-10T13:05:55.112Z,24.10
2019-05-10T13:07:16.215Z,24.10
2019-05-10T13:08:37.767Z,24.20
2019-05-10T13:10:03.487Z,24.20
2019-05-10T13:11:25.407Z,24.20
2019-05-10T13:12:47.320Z,24.30
2019-05-10T13:14:09.755Z,24.30
2019-05-10T13:15:33.352Z,24.30
2019-05-10T13:16:54.516Z,24.30
2019-05-10T13:18:15.923Z,24.20
2019-05-10T13:19:37.390Z,24.20
2019-05-10T13:20:59.392Z,24.20
2019-05-10T13:22:20.855Z,24.20
2019-05-10T13:23:42.509Z,24.30
2019-05-10T13:25:05.235Z,24.20
2019-05-10T13:26:26.777Z,24.20
2019-05-10T13:27:48.515Z,24.20
2019-05-10T13:29:10.496Z,24.10
2019-05-10T13:30:32.083Z,24.20
2019-05-10T13:31:56.558Z,24.20
2019-05-10T13:33:28.403Z,24.10
2019-05-10T13:34:39.610Z,24.10
2019-05-10T13:36:01.202Z,24.10
2019-05-10T13:37:24.762Z,24.10
2019-05-10T13:38:49.283Z,24.20
2019-05-10T13:40:08.887Z,24.20
2019-05-10T13:41:30.491Z,24.20
2019-05-10T13:42:52.307Z,24.20
2019-05-10T13:44:13.592Z,24.20
2019-05-10T13:45:37.831Z,24.20
2019-05-10T13:46:57.948Z,24.20
2019-05-10T13:48:19.904Z,24.20
2019-05-10T13:49:41.505Z,24.20
2019-05-10T13:51:03.117Z,24.20
2019-05-10T13:52:29.605Z,24.20
2019-05-10T13:53:47.658Z,24.20
2019-05-10T13:55:09.062Z,24.20
2019-05-10T13:56:30.807Z,24.20
2019-05-10T13:57:54.162Z,24.20
2019-05-10T13:59:17.800Z,24.30
2019-05-10T14:00:38.285Z,24.30
2019-05-10T14:01:59.940Z,24.30
2019-05-10T14:03:21.351Z,24.40
2019-05-10T14:04:42.691Z,24.40
2019-05-10T14:06:04.191Z,24.40
2019-05-10T14:07:25.546Z,24.40
2019-05-10T14:08:48.354Z,24.40
2019-05-10T14:10:09.694Z,24.50
2019-05-10T14:11:34.043Z,24.50
2019-05-10T14:12:55.888Z,24.50
2019-05-10T14:14:20.633Z,24.50
2019-05-10T14:15:40.173Z,24.50
2019-05-10T14:17:01.809Z,24.50
2019-05-10T14:18:23.774Z,24.50
2019-05-10T14:19:45.337Z,24.50
2019-05-10T14:21:07.127Z,24.50
2019-05-10T14:22:28.752Z,24.60
2019-05-10T14:23:50.367Z,24.50
2019-05-10T14:25:11.927Z,24.50
2019-05-10T14:26:33.358Z,24.60
2019-05-10T14:27:55.134Z,24.60
2019-05-10T14:29:16.756Z,24.60
2019-05-10T14:30:38.092Z,24.60
2019-05-10T14:31:59.671Z,24.50
2019-05-10T14:33:21.284Z,24.60
2019-05-10T14:34:44.233Z,24.50
2019-05-10T14:36:05.983Z,24.50
2019-05-10T14:37:27.227Z,24.50
2019-05-10T14:38:54.076Z,24.60
2019-05-10T14:40:17.007Z,24.60
2019-05-10T14:41:34.879Z,24.60
2019-05-10T14:42:56.410Z,24.60
2019-05-10T14:44:18.115Z,24.60
2019-05-10T14:45:39.459Z,24.60
2019-05-10T14:47:01.105Z,24.60
2019-05-10T14:48:28.546Z,24.60
2019-05-10T14:49:47.004Z,24.60
2019-05-10T14:51:10.928Z,24.60
2019-05-10T14:52:31.842Z,24.60
2019-05-10T14:53:58.476Z,24.60
2019-05-10T14:55:16.321Z,24.60
2019-05-10T14:56:37.995Z,24.60
2019-05-10T14:57:59.442Z,24.60
2019-05-10T14:59:20.688Z,24.60
2019-05-10T15:00:42.495Z,24.60
2019-05-10T15:02:04.412Z,24.60
2019-05-10T15:03:25.958Z,24.60
2019-05-10T15:04:47.635Z,24.60
2019-05-10T15:06:08.832Z,24.60
2019-05-10T15:07:30.719Z,24.60
2019-05-10T15:08:52.452Z,24.60
2019-05-10T15:10:14.035Z,24.60
2019-05-10T15:11:35.607Z,24.50
2019-05-10T15:12:56.991Z,24.50
2019-05-10T15:14:18.403Z,24.60
2019-05-10T15:15:40.095Z,24.60
2019-05-10T15:17:01.758Z,24.60
2019-05-10T15:18:23.411Z,24.60
2019-05-10T15:19:55.753Z,24.60
2019-05-10T15:21:07.904Z,24.60
2019-05-10T15:22:29.715Z,24.60
2019-05-10T15:23:55.422Z,24.60
2019-05-10T15:25:14.310Z,24.60
2019-05-10T15:26:37.294Z,24.60
2019-05-10T15:28:00.370Z,24.60
2019-05-10T15:29:22.992Z,24.60
2019-05-10T15:30:45.856Z,24.60
2019-05-10T15:32:07.427Z,24.60
2019-05-10T15:33:29.025Z,24.60
2019-05-10T15:35:05.467Z,24.60
2019-05-10T15:36:13.790Z,24.60
2019-05-10T15:37:35.291Z,24.60
2019-05-10T15:38:56.961Z,24.60
2019-05-10T15:40:18.524Z,24.60
2019-05-10T15:41:40.045Z,24.60
2019-05-10T15:43:03.170Z,24.60
2019-05-10T15:44:30.229Z,24.60
2019-05-10T15:45:52.700Z,24.60
2019-05-10T15:47:14.694Z,24.60
2019-05-10T15:48:36.670Z,24.60
2019-05-10T15:50:00.039Z,24.60
2019-05-10T15:52:46.278Z,24.60
2019-05-10T15:54:07.483Z,24.60
2019-05-10T15:55:28.822Z,24.60
2019-05-10T15:56:50.396Z,24.50
2019-05-10T15:58:11.999Z,24.60
2019-05-10T15:59:23.402Z,24.60
2019-05-10T15:59:33.428Z,24.60
2019-05-10T16:00:54.810Z,24.60
2019-05-10T16:02:16.192Z,24.60
2019-05-10T16:03:37.735Z,24.60
2019-05-10T16:04:59.360Z,24.60
2019-05-10T16:06:21.182Z,24.60
2019-05-10T16:07:46.283Z,24.50
2019-05-10T16:09:16.890Z,24.50
2019-05-10T16:10:38.854Z,24.50
2019-05-10T16:11:55.845Z,24.50
2019-05-10T16:13:23.570Z,24.50
2019-05-10T16:14:41.134Z,24.50
2019-05-10T16:16:02.510Z,24.50
2019-05-10T16:17:24.214Z,24.50
2019-05-10T16:18:45.594Z,24.50
2019-05-10T16:20:07.859Z,24.50
2019-05-10T16:21:29.239Z,24.50
2019-05-10T16:22:50.862Z,24.50
2019-05-10T16:24:13.567Z,24.50
2019-05-10T16:25:41.861Z,24.50
2019-05-10T16:27:00.226Z,24.50
2019-05-10T16:28:22.974Z,24.50
2019-05-10T16:29:44.119Z,24.50
2019-05-10T16:31:06.139Z,24.40
2019-05-10T16:32:29.258Z,24.40
2019-05-10T16:33:53.410Z,24.40
2019-05-10T16:35:14.908Z,24.40
2019-05-10T16:36:36.498Z,24.40
2019-05-10T16:37:58.171Z,24.40
2019-05-10T16:39:19.830Z,24.40
2019-05-10T16:40:44.447Z,24.40
2019-05-10T16:42:04.603Z,24.40
2019-05-10T16:43:26.127Z,24.40
2019-05-10T16:44:47.348Z,24.40
2019-05-10T16:46:08.692Z,24.30
2019-05-10T16:47:30.552Z,24.40
2019-05-10T16:48:52.187Z,24.30
2019-05-10T16:50:13.651Z,24.30
2019-05-10T16:51:35.317Z,24.30
2019-05-10T16:52:59.427Z,24.30
2019-05-10T16:54:25.247Z,24.30
2019-05-10T16:55:43.135Z,24.30
2019-05-10T16:57:04.994Z,24.30
2019-05-10T16:58:26.944Z,24.30
2019-05-10T16:59:48.483Z,24.30
2019-05-10T17:01:10.222Z,24.30
2019-05-10T17:02:36.522Z,24.30
2019-05-10T17:04:00.119Z,24.30
2019-05-10T17:05:17.849Z,24.30
2019-05-10T17:06:40.675Z,24.20
2019-05-10T17:08:03.055Z,24.30
2019-05-10T17:09:24.875Z,24.20
2019-05-10T17:10:46.256Z,24.20
2019-05-10T17:12:08.495Z,24.20
2019-05-10T17:13:29.892Z,24.20
2019-05-10T17:14:56.428Z,24.20
2019-05-10T17:16:16.884Z,24.20
2019-05-10T17:17:39.211Z,24.20
2019-05-10T17:19:01.022Z,24.20
2019-05-10T17:20:22.630Z,24.20
2019-05-10T17:21:44.011Z,24.20
2019-05-10T17:23:08.864Z,24.20
2019-05-10T17:24:28.866Z,24.20
2019-05-10T17:25:50.591Z,24.20
2019-05-10T17:27:11.991Z,24.20
2019-05-10T17:28:35.425Z,24.20
2019-05-10T17:29:56.912Z,24.20
2019-05-10T17:31:18.598Z,24.20
2019-05-10T17:32:39.923Z,24.20
2019-05-10T17:34:01.159Z,24.10
2019-05-10T17:35:22.805Z,24.10
2019-05-10T17:36:45.063Z,24.20